Time;durP1;ratioP1;P1;durP2;ratioP2;P2;SDS_P1;SDS_P2;PMS_P1;PMS_P2;Temp;Humidity;BMP_temperature;BMP_pressure;BME280_temperature;BME280_humidity;BME280_pressure;Samples;Min_cycle;Max_cycle;Signal;HPM_P1;HPM_P2
2021/06/13 00:01:55;;;;;;;4.40;3.70;;;23.70;49.10;;;;;;5112209;28;20248;-61
2021/06/13 00:04:20;;;;;;;4.03;3.10;;;23.70;49.10;;;;;;5111694;28;20174;-61
2021/06/13 00:06:46;;;;;;;4.07;3.30;;;23.70;49.10;;;;;;5112046;28;20616;-61
2021/06/13 00:09:11;;;;;;;3.70;3.40;;;23.70;49.20;;;;;;5112206;28;20476;-62
2021/06/13 00:11:37;;;;;;;3.95;3.30;;;23.70;49.20;;;;;;5111349;28;20165;-62
2021/06/13 00:14:03;;;;;;;3.45;2.55;;;23.70;49.20;;;;;;5112200;28;20534;-61
2021/06/13 00:16:29;;;;;;;3.28;2.60;;;23.70;49.30;;;;;;5112210;28;20188;-62
2021/06/13 00:18:54;;;;;;;3.33;3.03;;;23.70;49.30;;;;;;5111743;28;20170;-62
2021/06/13 00:21:20;;;;;;;3.53;3.20;;;23.70;49.30;;;;;;5112968;28;20639;-62
2021/06/13 00:23:45;;;;;;;3.72;3.08;;;23.70;49.40;;;;;;5115829;28;20266;-62
2021/06/13 00:26:11;;;;;;;3.65;3.10;;;23.70;49.40;;;;;;5115457;28;20541;-62
2021/06/13 00:28:37;;;;;;;3.75;3.05;;;23.70;49.50;;;;;;5115803;28;20198;-61
2021/06/13 00:31:03;;;;;;;3.97;3.05;;;23.60;49.50;;;;;;5115702;28;20249;-62
2021/06/13 00:33:28;;;;;;;4.28;3.58;;;23.60;49.50;;;;;;5115412;28;20173;-62
2021/06/13 00:35:54;;;;;;;3.47;3.03;;;23.60;49.50;;;;;;5115595;28;20192;-62
2021/06/13 00:38:19;;;;;;;4.28;3.65;;;23.60;49.50;;;;;;5115652;28;20534;-62
2021/06/13 00:40:45;;;;;;;3.47;2.80;;;23.60;49.60;;;;;;5114808;28;20177;-62
2021/06/13 00:43:10;;;;;;;4.70;3.08;;;23.60;49.60;;;;;;5115742;28;20663;-62
2021/06/13 00:45:36;;;;;;;3.78;2.90;;;23.60;49.60;;;;;;5115534;28;20279;-62
2021/06/13 00:48:02;;;;;;;4.35;3.22;;;23.60;49.60;;;;;;5115148;28;20173;-62
2021/06/13 00:50:33;;;;;;;4.18;3.13;;;23.60;49.70;;;;;;5115946;28;20181;-62
2021/06/13 00:52:58;;;;;;;4.40;3.00;;;23.60;49.70;;;;;;5115560;28;20176;-61
2021/06/13 00:55:24;;;;;;;3.92;2.92;;;23.60;49.80;;;;;;5115002;28;20169;-62
2021/06/13 00:57:50;;;;;;;3.65;3.13;;;23.60;49.80;;;;;;5115163;28;20507;-61
2021/06/13 01:00:16;;;;;;;2.92;2.60;;;23.60;49.80;;;;;;5114996;28;20229;-62
2021/06/13 01:02:41;;;;;;;4.25;2.97;;;23.60;49.80;;;;;;5114165;28;20697;-62
2021/06/13 01:05:07;;;;;;;3.60;3.30;;;23.60;49.80;;;;;;5115363;28;20165;-62
2021/06/13 01:07:39;;;;;;;4.57;3.67;;;23.60;49.90;;;;;;5114460;28;20173;-61
2021/06/13 01:10:32;;;;;;;3.42;3.13;;;23.60;49.90;;;;;;5097912;28;20170;-62
2021/06/13 01:13:25;;;;;;;4.13;3.20;;;23.60;50.00;;;;;;5115102;28;20559;-61
2021/06/13 01:16:21;;;;;;;3.45;3.15;;;23.50;49.90;;;;;;5114321;28;20185;-61
2021/06/13 01:18:59;;;;;;;3.92;3.15;;;23.50;50.00;;;;;;5114812;28;20208;-61
2021/06/13 01:21:29;;;;;;;3.67;3.25;;;23.50;50.00;;;;;;5097498;28;20526;-62
2021/06/13 01:24:06;;;;;;;4.38;3.15;;;23.50;50.00;;;;;;5096132;28;20257;-61
2021/06/13 01:26:51;;;;;;;3.20;2.80;;;23.50;50.00;;;;;;5114610;28;20173;-62
2021/06/13 01:29:27;;;;;;;6.20;3.80;;;23.50;50.00;;;;;;5079711;28;20169;-61
2021/06/13 01:31:54;;;;;;;4.20;3.38;;;23.50;50.10;;;;;;5079993;28;20177;-61
2021/06/13 01:34:24;;;;;;;3.03;2.80;;;23.50;50.10;;;;;;5096222;28;20173;-61
2021/06/13 01:36:50;;;;;;;3.38;3.03;;;23.50;50.10;;;;;;5113804;28;20213;-62
2021/06/13 01:39:23;;;;;;;3.72;3.15;;;23.50;50.20;;;;;;5096645;28;20529;-62
2021/06/13 01:41:48;;;;;;;3.85;3.17;;;23.50;50.20;;;;;;5080151;28;20201;-61
2021/06/13 01:44:14;;;;;;;3.30;3.00;;;23.50;50.20;;;;;;5078827;28;20587;-61
2021/06/13 01:46:40;;;;;;;3.75;3.35;;;23.50;50.30;;;;;;5114196;28;20596;-61
2021/06/13 01:49:06;;;;;;;5.25;3.55;;;23.50;50.30;;;;;;5079464;28;20658;-61
2021/06/13 01:51:31;;;;;;;3.78;3.35;;;23.50;50.30;;;;;;5095365;28;20196;-60
2021/06/13 01:53:59;;;;;;;4.10;3.03;;;23.50;50.30;;;;;;5096231;28;20180;-61
2021/06/13 01:56:25;;;;;;;3.30;3.00;;;23.40;50.30;;;;;;5096213;28;20177;-61
2021/06/13 01:58:50;;;;;;;4.03;3.30;;;23.40;50.30;;;;;;5113499;28;20175;-61
2021/06/13 02:01:19;;;;;;;3.60;3.17;;;23.40;50.40;;;;;;5079079;28;20624;-61
2021/06/13 02:03:46;;;;;;;3.17;2.88;;;23.40;50.40;;;;;;5113443;28;20216;-61
2021/06/13 02:06:12;;;;;;;4.25;2.95;;;23.40;50.40;;;;;;5096030;28;20203;-61
2021/06/13 02:08:38;;;;;;;3.92;3.53;;;23.40;50.50;;;;;;5095718;28;20627;-61
2021/06/13 02:11:05;;;;;;;3.45;3.10;;;23.40;50.50;;;;;;5095169;28;21051;-61
2021/06/13 02:13:31;;;;;;;5.22;3.40;;;23.40;50.50;;;;;;5114083;28;20177;-60
2021/06/13 02:15:57;;;;;;;5.25;3.83;;;23.40;50.50;;;;;;5096024;28;20537;-61
2021/06/13 02:18:24;;;;;;;3.80;3.22;;;23.40;50.50;;;;;;5095246;28;20180;-60
2021/06/13 02:20:49;;;;;;;3.88;2.95;;;23.40;50.50;;;;;;5095355;28;20508;-61
2021/06/13 02:23:15;;;;;;;3.50;3.20;;;23.40;50.50;;;;;;5078645;28;20615;-61
2021/06/13 02:25:41;;;;;;;3.70;3.40;;;23.40;50.50;;;;;;5094689;28;20173;-61
2021/06/13 02:28:06;;;;;;;4.43;3.10;;;23.40;50.60;;;;;;5095756;28;20173;-60
2021/06/13 02:30:33;;;;;;;5.18;3.33;;;23.30;50.60;;;;;;5095126;28;20169;-61
2021/06/13 02:32:59;;;;;;;3.80;3.47;;;23.30;50.60;;;;;;5094593;28;20173;-62
2021/06/13 02:35:25;;;;;;;3.83;2.90;;;23.30;50.60;;;;;;5078489;28;20184;-61
2021/06/13 02:37:51;;;;;;;3.95;3.55;;;23.30;50.70;;;;;;5095165;28;20181;-61
2021/06/13 02:40:18;;;;;;;3.60;2.95;;;23.30;50.70;;;;;;5094696;28;20177;-61
2021/06/13 02:42:44;;;;;;;3.60;3.28;;;23.30;50.70;;;;;;5113231;28;20208;-61
2021/06/13 02:45:10;;;;;;;3.40;3.10;;;23.30;50.70;;;;;;5112666;28;20176;-61
2021/06/13 02:47:36;;;;;;;3.33;2.90;;;23.30;50.80;;;;;;5112390;28;20173;-61
2021/06/13 02:50:04;;;;;;;3.85;3.33;;;23.30;50.80;;;;;;5113317;28;20196;-61
2021/06/13 02:52:41;;;;;;;4.70;3.40;;;23.30;50.80;;;;;;5113150;28;20343;-61
2021/06/13 02:55:07;;;;;;;4.22;3.22;;;23.30;50.80;;;;;;5095935;28;20173;-61
2021/06/13 02:57:39;;;;;;;3.95;3.15;;;23.30;50.80;;;;;;5077730;28;20177;-61
2021/06/13 03:00:08;;;;;;;3.35;3.05;;;23.30;50.90;;;;;;5094105;28;20307;-61
2021/06/13 03:02:33;;;;;;;3.80;3.45;;;23.30;50.90;;;;;;5112856;28;20666;-61
2021/06/13 03:05:01;;;;;;;4.75;3.50;;;23.30;50.90;;;;;;5078093;28;20188;-62
2021/06/13 03:07:26;;;;;;;3.17;2.88;;;23.30;51.00;;;;;;5094183;28;20178;-61
2021/06/13 03:09:52;;;;;;;3.33;3.03;;;23.30;51.10;;;;;;5094855;28;20172;-61
2021/06/13 03:12:19;;;;;;;3.80;3.35;;;23.30;51.00;;;;;;5094942;28;20169;-61
2021/06/13 03:14:44;;;;;;;3.25;2.97;;;23.20;51.00;;;;;;5094069;28;20184;-60
2021/06/13 03:17:10;;;;;;;4.75;3.50;;;23.20;51.10;;;;;;5077888;28;20176;-61
2021/06/13 03:19:37;;;;;;;4.82;3.47;;;23.20;51.10;;;;;;5077652;28;20173;-61
2021/06/13 03:22:02;;;;;;;4.32;3.72;;;23.20;51.10;;;;;;5077086;28;20215;-61
2021/06/13 03:24:28;;;;;;;3.50;2.75;;;23.20;51.10;;;;;;5112937;28;20173;-61
2021/06/13 03:26:54;;;;;;;3.80;3.30;;;23.20;51.10;;;;;;5077246;28;20172;-61
2021/06/13 03:29:20;;;;;;;3.65;3.25;;;23.20;51.20;;;;;;5077124;28;20180;-61
2021/06/13 03:31:45;;;;;;;4.00;3.53;;;23.20;51.20;;;;;;5077461;28;20204;-61
2021/06/13 03:34:11;;;;;;;3.72;3.10;;;23.20;51.20;;;;;;5094401;28;20165;-61
2021/06/13 03:36:36;;;;;;;4.10;3.60;;;23.20;51.20;;;;;;5076576;28;20177;-62
2021/06/13 03:39:02;;;;;;;4.28;3.50;;;23.20;51.30;;;;;;5077759;28;20532;-62
2021/06/13 03:41:28;;;;;;;4.15;3.20;;;23.20;51.20;;;;;;5094682;28;20199;-61
2021/06/13 03:43:54;;;;;;;4.28;3.65;;;23.20;51.20;;;;;;5111648;28;20177;-61
2021/06/13 03:46:19;;;;;;;3.72;3.42;;;23.10;51.20;;;;;;5112628;28;20176;-61
2021/06/13 03:48:48;;;;;;;3.80;3.40;;;23.10;51.30;;;;;;5112208;28;20245;-61
2021/06/13 03:51:13;;;;;;;4.38;3.15;;;23.10;51.30;;;;;;5093931;28;20177;-61
2021/06/13 03:53:47;;;;;;;3.63;3.30;;;23.10;51.30;;;;;;5077476;28;20173;-61
2021/06/13 03:56:17;;;;;;;3.60;3.25;;;23.10;51.30;;;;;;5080665;28;20260;-61
2021/06/13 03:58:47;;;;;;;3.90;3.60;;;23.10;51.40;;;;;;5098198;28;20199;-61
2021/06/13 04:01:13;;;;;;;5.32;3.60;;;23.10;51.30;;;;;;5098308;28;20248;-61
2021/06/13 04:03:42;;;;;;;4.10;3.30;;;23.10;51.30;;;;;;5097373;28;20224;-61
2021/06/13 04:06:08;;;;;;;3.75;3.10;;;23.10;51.30;;;;;;5098627;28;20217;-61
2021/06/13 04:08:35;;;;;;;4.28;3.65;;;23.10;51.30;;;;;;5097920;28;20497;-60
2021/06/13 04:11:00;;;;;;;3.67;3.03;;;23.10;51.30;;;;;;5080768;28;20173;-61
2021/06/13 04:13:26;;;;;;;4.43;3.38;;;23.10;51.40;;;;;;5081266;28;20173;-60
2021/06/13 04:15:51;;;;;;;3.55;3.22;;;23.10;51.30;;;;;;5097773;28;20169;-61
2021/06/13 04:18:17;;;;;;;3.40;3.10;;;23.10;51.40;;;;;;5080412;28;20287;-60
2021/06/13 04:20:43;;;;;;;3.90;3.25;;;23.10;51.40;;;;;;5097630;28;20603;-60
2021/06/13 04:23:09;;;;;;;3.67;3.10;;;23.10;51.40;;;;;;5081273;28;20213;-60
2021/06/13 04:25:35;;;;;;;3.33;3.03;;;23.10;51.40;;;;;;5096812;28;20534;-60
2021/06/13 04:28:00;;;;;;;4.15;3.75;;;23.10;51.40;;;;;;5098049;28;20173;-60
2021/06/13 04:30:27;;;;;;;3.92;3.30;;;23.10;51.40;;;;;;5097785;28;20203;-60
2021/06/13 04:32:52;;;;;;;3.47;3.10;;;23.10;51.30;;;;;;5114885;28;20665;-62
2021/06/13 04:35:18;;;;;;;3.50;3.20;;;23.10;51.40;;;;;;5116208;28;20251;-61
2021/06/13 04:37:43;;;;;;;3.83;3.45;;;23.10;51.40;;;;;;5115640;28;20175;-61
2021/06/13 04:40:09;;;;;;;4.25;3.55;;;23.10;51.40;;;;;;5115414;28;20177;-61
2021/06/13 04:42:35;;;;;;;3.67;3.05;;;23.10;51.30;;;;;;5115469;28;20287;-62
2021/06/13 04:45:06;;;;;;;3.70;3.08;;;23.10;51.40;;;;;;5116153;28;20179;-62
2021/06/13 04:47:32;;;;;;;3.88;3.30;;;23.10;51.40;;;;;;5114833;28;20185;-62
2021/06/13 04:49:58;;;;;;;3.65;3.22;;;23.20;51.40;;;;;;5115933;28;20257;-62
2021/06/13 04:52:24;;;;;;;3.60;3.30;;;23.20;51.50;;;;;;5115633;28;20684;-61
2021/06/13 04:55:06;;;;;;;3.97;3.17;;;23.20;51.50;;;;;;5114851;28;20177;-61
2021/06/13 04:57:56;;;;;;;3.38;3.08;;;23.20;51.50;;;;;;5098079;28;20245;-62
2021/06/13 05:00:22;;;;;;;6.57;3.75;;;23.10;51.50;;;;;;5114613;28;20260;-62
2021/06/13 05:02:48;;;;;;;3.60;3.30;;;23.10;51.50;;;;;;5115123;28;20248;-62
2021/06/13 05:05:15;;;;;;;3.67;3.30;;;23.10;51.50;;;;;;5097373;28;20233;-61
2021/06/13 05:07:41;;;;;;;3.70;3.25;;;23.20;51.50;;;;;;5095644;28;20329;-60
2021/06/13 05:10:08;;;;;;;4.05;3.05;;;23.20;51.50;;;;;;5114973;28;20268;-61
2021/06/13 05:12:46;;;;;;;4.88;3.17;;;23.10;51.50;;;;;;5115317;28;20181;-60
2021/06/13 05:15:12;;;;;;;3.67;3.05;;;23.20;51.60;;;;;;5114599;28;20173;-61
2021/06/13 05:17:37;;;;;;;4.18;3.28;;;23.20;51.60;;;;;;5114780;28;20170;-61
2021/06/13 05:20:03;;;;;;;4.90;3.38;;;23.20;51.60;;;;;;5115239;28;20177;-61
2021/06/13 05:22:28;;;;;;;3.72;3.20;;;23.20;51.60;;;;;;5114090;28;20239;-61
2021/06/13 05:24:54;;;;;;;3.70;3.40;;;23.10;51.50;;;;;;5114717;28;20272;-61
2021/06/13 05:27:19;;;;;;;4.20;3.80;;;23.20;51.60;;;;;;5114834;28;20675;-61
2021/06/13 05:29:45;;;;;;;3.85;3.55;;;23.10;51.60;;;;;;5114107;28;20174;-61
2021/06/13 05:32:10;;;;;;;3.50;3.20;;;23.20;51.70;;;;;;5114778;28;20165;-61
2021/06/13 05:34:36;;;;;;;3.67;3.15;;;23.20;51.70;;;;;;5114635;28;20277;-61
2021/06/13 05:37:02;;;;;;;4.28;3.60;;;23.10;51.60;;;;;;5114091;28;20324;-62
2021/06/13 05:39:27;;;;;;;4.28;3.88;;;23.20;51.70;;;;;;5114730;28;20181;-62
2021/06/13 05:41:53;;;;;;;3.75;3.40;;;23.20;51.70;;;;;;5113745;28;20200;-62
2021/06/13 05:44:18;;;;;;;4.05;3.65;;;23.10;51.60;;;;;;5114725;28;20169;-61
2021/06/13 05:46:44;;;;;;;4.13;3.10;;;23.20;51.70;;;;;;5114530;28;20202;-61
2021/06/13 05:49:09;;;;;;;3.50;3.20;;;23.10;52.30;;;;;;5114004;28;20597;-61
2021/06/13 05:51:35;;;;;;;4.78;3.75;;;23.20;51.70;;;;;;5114268;28;20704;-61
2021/06/13 05:54:01;;;;;;;3.88;3.28;;;23.20;51.70;;;;;;5114451;28;20703;-60
2021/06/13 05:56:26;;;;;;;3.58;3.17;;;23.20;51.70;;;;;;5114015;28;20175;-60
2021/06/13 05:58:52;;;;;;;3.95;3.55;;;23.20;51.70;;;;;;5114289;28;20252;-60
2021/06/13 06:01:17;;;;;;;3.72;3.30;;;23.20;51.80;;;;;;5114059;28;20267;-60
2021/06/13 06:03:43;;;;;;;3.45;3.10;;;23.20;51.80;;;;;;5113114;28;20801;-61
2021/06/13 06:06:08;;;;;;;3.78;3.28;;;23.10;51.70;;;;;;5114324;28;20263;-61
2021/06/13 06:08:34;;;;;;;3.70;3.33;;;23.20;51.80;;;;;;5113808;28;20172;-60
2021/06/13 06:10:59;;;;;;;4.60;3.45;;;23.10;51.80;;;;;;5113954;28;20268;-60
2021/06/13 06:13:25;;;;;;;3.85;3.25;;;23.20;51.90;;;;;;5114196;28;20197;-60
2021/06/13 06:15:50;;;;;;;3.08;2.78;;;23.20;51.90;;;;;;5113910;28;20248;-61
2021/06/13 06:18:16;;;;;;;4.93;3.63;;;23.20;51.90;;;;;;5113406;28;20196;-61
2021/06/13 06:20:41;;;;;;;3.95;3.65;;;23.20;51.90;;;;;;5113490;28;20165;-61
2021/06/13 06:23:07;;;;;;;3.60;3.30;;;23.20;51.90;;;;;;5113763;28;20212;-61
2021/06/13 06:25:33;;;;;;;3.40;3.10;;;23.20;51.90;;;;;;5112729;28;20166;-61
2021/06/13 06:27:58;;;;;;;4.32;3.70;;;23.20;51.90;;;;;;5113630;28;20328;-61
2021/06/13 06:30:24;;;;;;;4.13;3.28;;;23.20;51.90;;;;;;5113605;28;20178;-61
2021/06/13 06:32:50;;;;;;;3.60;3.30;;;23.20;51.90;;;;;;5112706;28;20189;-61
2021/06/13 06:35:16;;;;;;;3.58;3.28;;;23.20;51.80;;;;;;5113568;28;20247;-62
2021/06/13 06:37:41;;;;;;;3.40;3.03;;;23.20;51.90;;;;;;5113375;28;20228;-61
2021/06/13 06:40:08;;;;;;;4.63;3.45;;;23.20;52.30;;;;;;5113023;28;20339;-62
2021/06/13 06:42:34;;;;;;;3.08;2.88;;;23.20;51.80;;;;;;5113276;28;20216;-61
2021/06/13 06:44:59;;;;;;;4.40;3.40;;;23.20;51.80;;;;;;5113613;28;20616;-62
2021/06/13 06:47:25;;;;;;;4.07;2.92;;;23.30;51.90;;;;;;5112807;28;20640;-61
2021/06/13 06:49:50;;;;;;;3.67;3.15;;;23.30;51.70;;;;;;5113097;28;20208;-61
2021/06/13 06:52:17;;;;;;;3.67;3.33;;;23.30;51.70;;;;;;5112690;28;20207;-61
2021/06/13 06:54:43;;;;;;;4.63;3.50;;;23.30;51.70;;;;;;5113511;28;20215;-61
2021/06/13 06:57:09;;;;;;;3.35;2.88;;;23.30;51.70;;;;;;5113572;28;20173;-61
2021/06/13 06:59:34;;;;;;;4.95;3.47;;;23.30;51.80;;;;;;5112069;28;20224;-61
2021/06/13 07:02:01;;;;;;;3.58;3.05;;;23.20;51.90;;;;;;5113243;28;20619;-61
2021/06/13 07:04:26;;;;;;;4.78;3.08;;;23.30;51.80;;;;;;5095144;28;20173;-62
2021/06/13 07:06:52;;;;;;;4.28;3.30;;;23.30;51.90;;;;;;5112086;28;20173;-61
2021/06/13 07:09:17;;;;;;;4.63;3.17;;;23.30;51.90;;;;;;5113046;28;20627;-59
2021/06/13 07:11:43;;;;;;;3.58;3.08;;;23.40;51.80;;;;;;5112874;28;20258;-60
2021/06/13 07:14:08;;;;;;;4.00;3.45;;;23.40;51.90;;;;;;5112363;28;20173;-62
2021/06/13 07:16:34;;;;;;;5.57;3.40;;;23.30;51.90;;;;;;5112663;28;20267;-62
2021/06/13 07:18:59;;;;;;;4.47;3.33;;;23.40;51.90;;;;;;5112925;28;20203;-62
2021/06/13 07:21:25;;;;;;;5.65;3.60;;;23.40;51.80;;;;;;5112232;28;20646;-62
2021/06/13 07:23:51;;;;;;;5.25;3.55;;;23.40;51.60;;;;;;5112798;28;20212;-62
2021/06/13 07:26:16;;;;;;;5.47;3.65;;;23.40;51.50;;;;;;5094616;28;20650;-62
2021/06/13 07:28:42;;;;;;;6.72;3.70;;;23.40;51.40;;;;;;5112011;28;20184;-62
2021/06/13 07:31:07;;;;;;;5.95;3.60;;;23.50;51.40;;;;;;5112298;28;20173;-63
2021/06/13 07:33:33;;;;;;;5.13;3.83;;;23.50;51.30;;;;;;5112519;28;20196;-63
2021/06/13 07:35:58;;;;;;;4.35;3.60;;;23.50;51.30;;;;;;5111959;28;20169;-64
2021/06/13 07:38:24;;;;;;;5.35;4.15;;;23.40;51.20;;;;;;5112628;28;20192;-63
2021/06/13 07:40:49;;;;;;;7.22;4.03;;;23.40;51.10;;;;;;5112339;28;20672;-63
2021/06/13 07:43:15;;;;;;;7.63;4.95;;;23.50;50.90;;;;;;5112054;28;20690;-63
2021/06/13 07:45:41;;;;;;;4.43;3.45;;;23.40;50.90;;;;;;5112602;28;20165;-61
2021/06/13 07:48:08;;;;;;;6.28;4.05;;;23.40;51.00;;;;;;5103432;28;20278;-63
2021/06/13 07:50:34;;;;;;;6.72;3.95;;;23.40;51.70;;;;;;5100851;28;20177;-62
2021/06/13 07:52:59;;;;;;;4.05;3.58;;;23.70;51.20;;;;;;5102369;28;20174;-61
2021/06/13 07:55:25;;;;;;;6.40;4.35;;;23.40;51.00;;;;;;5091744;28;20249;-62
2021/06/13 07:57:50;;;;;;;5.88;4.00;;;23.40;51.00;;;;;;5091884;28;20272;-63
2021/06/13 08:00:19;;;;;;;6.47;4.35;;;23.40;51.00;;;;;;5092103;28;20231;-62
2021/06/13 08:02:44;;;;;;;6.13;4.00;;;23.40;51.00;;;;;;5091086;28;20281;-62
2021/06/13 08:05:25;;;;;;;7.15;4.32;;;23.40;51.00;;;;;;5092106;28;20254;-61
2021/06/13 08:07:57;;;;;;;7.68;4.35;;;23.40;50.80;;;;;;5092034;28;20239;-62
2021/06/13 08:10:23;;;;;;;5.32;3.30;;;23.30;50.80;;;;;;5091531;28;20174;-63
2021/06/13 08:12:49;;;;;;;4.82;4.32;;;23.40;50.90;;;;;;5091714;28;20188;-62
2021/06/13 08:15:15;;;;;;;5.43;4.15;;;23.40;50.80;;;;;;5091906;28;20177;-62
2021/06/13 08:17:41;;;;;;;5.85;3.80;;;23.30;50.70;;;;;;5090860;28;20214;-63
2021/06/13 08:20:07;;;;;;;4.13;3.72;;;23.40;50.80;;;;;;5091819;28;20174;-62
2021/06/13 08:22:33;;;;;;;5.78;3.60;;;23.40;50.50;;;;;;5091565;28;20697;-62
2021/06/13 08:24:59;;;;;;;6.00;4.50;;;23.40;50.30;;;;;;5091087;28;20177;-63
2021/06/13 08:27:28;;;;;;;6.35;4.35;;;23.50;50.50;;;;;;5091797;28;20268;-61
2021/06/13 08:29:54;;;;;;;5.75;4.43;;;23.50;50.50;;;;;;5091516;28;20534;-62
2021/06/13 08:32:19;;;;;;;6.38;4.22;;;23.50;50.60;;;;;;5091053;28;20174;-63
2021/06/13 08:34:45;;;;;;;5.35;3.92;;;23.50;50.50;;;;;;5091729;28;20712;-63
2021/06/13 08:37:10;;;;;;;7.13;4.05;;;23.50;50.50;;;;;;5091849;28;20210;-62
2021/06/13 08:39:36;;;;;;;5.05;3.65;;;23.60;50.60;;;;;;5091079;28;20177;-63
2021/06/13 08:42:01;;;;;;;5.63;4.35;;;23.60;50.60;;;;;;5091813;28;20205;-63
2021/06/13 08:44:27;;;;;;;4.78;3.88;;;23.60;50.60;;;;;;5095544;28;20170;-62
2021/06/13 08:46:52;;;;;;;5.63;4.00;;;23.60;50.60;;;;;;5094438;28;20174;-62
2021/06/13 08:49:23;;;;;;;5.78;3.95;;;23.60;50.60;;;;;;5094369;28;20261;-62
2021/06/13 08:51:49;;;;;;;4.85;3.97;;;23.60;50.60;;;;;;5094321;28;20169;-61
2021/06/13 08:54:15;;;;;;;5.13;3.65;;;23.70;50.60;;;;;;5095172;28;20570;-62
2021/06/13 08:56:42;;;;;;;5.75;3.97;;;23.70;50.70;;;;;;5094973;28;20205;-61
2021/06/13 08:59:08;;;;;;;4.07;3.10;;;23.70;50.80;;;;;;5094496;28;20663;-63
2021/06/13 09:01:33;;;;;;;5.53;3.50;;;23.80;50.80;;;;;;5094472;28;20221;-62
2021/06/13 09:04:00;;;;;;;4.50;3.65;;;23.80;50.80;;;;;;5095276;28;20209;-62
2021/06/13 09:06:26;;;;;;;4.43;3.85;;;23.80;50.80;;;;;;5094435;28;20170;-62
2021/06/13 09:08:51;;;;;;;3.88;3.47;;;23.90;50.80;;;;;;5094768;28;20178;-63
2021/06/13 09:11:28;;;;;;;5.28;3.78;;;23.80;50.80;;;;;;5095095;28;20170;-63
2021/06/13 09:13:53;;;;;;;3.95;3.33;;;23.80;50.90;;;;;;5093859;28;20741;-62
2021/06/13 09:16:26;;;;;;;4.68;3.63;;;23.80;51.00;;;;;;5093655;28;20364;-62
2021/06/13 09:18:52;;;;;;;5.63;4.22;;;23.80;51.10;;;;;;5094742;28;20201;-65
2021/06/13 09:21:20;;;;;;;6.38;3.85;;;23.80;51.10;;;;;;5093956;28;20654;-60
2021/06/13 09:23:46;;;;;;;5.80;3.70;;;23.90;51.30;;;;;;5094373;28;20205;-59
2021/06/13 09:26:16;;;;;;;5.57;3.78;;;23.90;51.30;;;;;;5094799;28;20173;-59
2021/06/13 09:28:42;;;;;;;5.50;3.78;;;23.70;51.30;;;;;;5093312;28;20697;-59
2021/06/13 09:31:16;;;;;;;5.43;4.15;;;23.90;51.50;;;;;;5094726;28;20209;-60
2021/06/13 09:33:41;;;;;;;4.95;3.47;;;23.90;51.70;;;;;;5094326;28;20268;-60
2021/06/13 09:36:08;;;;;;;7.10;4.15;;;24.00;51.90;;;;;;5093647;28;20257;-60
2021/06/13 09:39:05;;;;;;;3.47;3.17;;;24.00;51.90;;;;;;5094336;28;20209;-60
2021/06/13 09:41:31;;;;;;;6.13;3.75;;;24.00;52.00;;;;;;5086590;28;20598;-60
2021/06/13 09:44:00;;;;;;;7.50;3.47;;;24.00;52.10;;;;;;5105478;28;20208;-60
2021/06/13 09:46:27;;;;;;;4.95;3.40;;;24.00;52.10;;;;;;5114204;28;20539;-60
2021/06/13 09:48:59;;;;;;;6.13;3.35;;;24.00;52.10;;;;;;5113140;28;20173;-60
2021/06/13 09:51:32;;;;;;;5.82;3.22;;;24.00;52.10;;;;;;5095582;28;20169;-59
2021/06/13 09:53:58;;;;;;;4.22;3.33;;;24.10;52.20;;;;;;5113204;28;20173;-59
2021/06/13 09:56:25;;;;;;;4.20;3.17;;;24.10;52.10;;;;;;5103096;28;20192;-60
2021/06/13 09:58:58;;;;;;;4.88;3.55;;;24.10;52.10;;;;;;5113570;28;20180;-60
2021/06/13 10:01:31;;;;;;;3.83;2.95;;;24.10;52.20;;;;;;5113528;28;20297;-60
2021/06/13 10:03:57;;;;;;;5.18;3.28;;;24.10;52.20;;;;;;5110723;28;20651;-60
2021/06/13 10:06:23;;;;;;;6.75;3.40;;;24.20;52.20;;;;;;5113716;28;20187;-59
2021/06/13 10:08:49;;;;;;;5.43;3.35;;;24.20;52.30;;;;;;5113495;28;20165;-59
2021/06/13 10:11:15;;;;;;;5.20;3.38;;;24.20;52.30;;;;;;5112861;28;20180;-59
2021/06/13 10:13:57;;;;;;;4.55;3.40;;;24.20;52.20;;;;;;5113473;28;20177;-59
2021/06/13 10:16:27;;;;;;;4.88;3.58;;;24.20;52.20;;;;;;5110473;28;20234;-60
2021/06/13 10:19:13;;;;;;;3.90;3.30;;;24.20;52.20;;;;;;5113157;28;20161;-59
2021/06/13 10:21:42;;;;;;;4.10;3.50;;;24.20;52.20;;;;;;5111136;28;20169;-60
2021/06/13 10:24:17;;;;;;;4.75;3.63;;;24.30;52.20;;;;;;5112662;28;20201;-60
2021/06/13 10:26:50;;;;;;;4.20;3.08;;;24.30;52.20;;;;;;5111793;28;20159;-58
2021/06/13 10:29:16;;;;;;;4.05;3.45;;;24.30;52.10;;;;;;5110805;28;20244;-60
2021/06/13 10:31:46;;;;;;;4.25;3.53;;;24.30;52.10;;;;;;5113099;28;20635;-62
2021/06/13 10:34:11;;;;;;;6.07;3.88;;;24.30;52.10;;;;;;5113806;28;20741;-65
2021/06/13 10:36:39;;;;;;;3.38;2.83;;;24.30;52.10;;;;;;5113543;28;20192;-62
2021/06/13 10:39:06;;;;;;;5.18;3.42;;;24.30;52.10;;;;;;5112980;28;20172;-62
2021/06/13 10:41:31;;;;;;;4.18;3.17;;;24.30;52.00;;;;;;5113311;28;20173;-62
2021/06/13 10:44:19;;;;;;;4.95;3.20;;;24.30;51.90;;;;;;5113733;28;20212;-63
2021/06/13 10:46:45;;;;;;;4.57;3.00;;;24.30;51.80;;;;;;5097935;28;20187;-62
2021/06/13 10:49:31;;;;;;;5.32;3.50;;;24.30;51.80;;;;;;5095462;28;20250;-59
2021/06/13 10:52:03;;;;;;;5.35;3.28;;;24.30;51.80;;;;;;5112595;28;20259;-59
2021/06/13 10:54:31;;;;;;;6.18;3.42;;;24.30;51.80;;;;;;5113468;28;20169;-59
2021/06/13 10:57:16;;;;;;;4.95;3.28;;;24.30;51.80;;;;;;5112579;28;20229;-59
2021/06/13 10:59:43;;;;;;;5.60;3.28;;;24.30;51.90;;;;;;5112002;28;20225;-60
2021/06/13 11:04:55;;;;;;;5.18;3.38;;;24.40;52.00;;;;;;5112837;28;20556;-59
2021/06/13 11:07:27;;;;;;;4.55;2.83;;;24.30;52.00;;;;;;5111868;28;20288;-59
2021/06/13 11:10:11;;;;;;;3.22;2.92;;;24.40;52.10;;;;;;5112954;28;20177;-64
2021/06/13 11:12:37;;;;;;;7.15;3.25;;;24.40;52.10;;;;;;5112264;28;20161;-63
2021/06/13 11:15:03;;;;;;;5.15;3.28;;;24.40;52.10;;;;;;5113076;28;20184;-64
2021/06/13 11:17:54;;;;;;;5.85;3.03;;;24.40;52.00;;;;;;5111708;28;20177;-63
2021/06/13 11:22:55;;;;;;;6.22;3.20;;;24.40;52.10;;;;;;5092501;28;20217;-63
2021/06/13 11:25:22;;;;;;;4.18;3.38;;;24.40;52.00;;;;;;5097686;28;20649;-63
2021/06/13 11:28:27;;;;;;;6.53;3.45;;;24.40;52.00;;;;;;5111979;28;20177;-63
2021/06/13 11:30:57;;;;;;;4.30;3.35;;;24.40;52.20;;;;;;5112522;28;20638;-64
2021/06/13 11:33:33;;;;;;;4.53;3.42;;;24.40;52.00;;;;;;5112638;28;20533;-64
2021/06/13 11:35:58;;;;;;;6.40;3.40;;;24.40;51.90;;;;;;5113041;28;20187;-64
2021/06/13 11:38:25;;;;;;;5.72;3.45;;;24.40;51.90;;;;;;5112784;28;20173;-64
2021/06/13 11:40:52;;;;;;;5.95;3.17;;;24.40;51.90;;;;;;5097522;28;20189;-64
2021/06/13 11:43:19;;;;;;;4.45;3.47;;;24.40;51.90;;;;;;5092445;28;20228;-63
2021/06/13 11:45:51;;;;;;;4.78;3.33;;;24.40;51.80;;;;;;5092105;28;20178;-63
2021/06/13 11:48:20;;;;;;;5.95;3.00;;;24.40;51.80;;;;;;5091754;28;20186;-63
2021/06/13 11:51:10;;;;;;;4.20;3.08;;;24.40;51.80;;;;;;5095936;28;20252;-63
2021/06/13 11:53:58;;;;;;;4.35;3.00;;;24.50;51.70;;;;;;5112561;28;20180;-63
2021/06/13 11:56:36;;;;;;;6.88;3.75;;;24.50;51.70;;;;;;5111956;28;20173;-63
2021/06/13 11:59:21;;;;;;;5.15;3.10;;;24.40;51.70;;;;;;5112400;28;20691;-63
2021/06/13 12:01:53;;;;;;;6.28;3.58;;;24.50;51.70;;;;;;5111789;28;20193;-62
2021/06/13 12:04:20;;;;;;;4.10;2.90;;;24.50;51.60;;;;;;5112488;28;20184;-63
2021/06/13 12:06:46;;;;;;;5.00;3.50;;;24.50;51.50;;;;;;5112072;28;20242;-63
2021/06/13 12:09:14;;;;;;;5.25;3.50;;;24.50;51.50;;;;;;5112260;28;20584;-64
2021/06/13 12:11:50;;;;;;;4.82;3.30;;;24.50;51.50;;;;;;5112383;28;20173;-63
2021/06/13 12:14:37;;;;;;;3.75;3.40;;;24.50;51.50;;;;;;5112495;28;20180;-63
2021/06/13 12:17:19;;;;;;;3.78;3.03;;;24.50;51.50;;;;;;5111858;28;20253;-63
2021/06/13 12:19:53;;;;;;;4.97;3.08;;;24.60;51.50;;;;;;5116046;28;20550;-63
2021/06/13 12:27:44;;;;;;;3.65;2.88;;;24.60;51.30;;;;;;5115810;28;20184;-63
2021/06/13 12:30:10;;;;;;;3.65;3.35;;;24.60;51.20;;;;;;5115454;28;20279;-63
2021/06/13 12:32:36;;;;;;;4.15;3.08;;;24.60;51.10;;;;;;5115540;28;20191;-64
2021/06/13 12:35:08;;;;;;;4.15;3.10;;;24.60;51.10;;;;;;5115839;28;20184;-65
2021/06/13 12:37:34;;;;;;;3.20;2.90;;;24.60;51.10;;;;;;5114823;28;20264;-64
2021/06/13 12:40:04;;;;;;;3.97;2.75;;;24.70;51.10;;;;;;5115594;28;20261;-64
2021/06/13 12:42:30;;;;;;;3.63;2.97;;;24.70;51.10;;;;;;5114979;28;20295;-64
2021/06/13 12:45:12;;;;;;;3.22;2.67;;;24.80;51.20;;;;;;5114745;28;20256;-63
2021/06/13 12:47:39;;;;;;;3.30;3.00;;;24.80;51.10;;;;;;5115183;28;20538;-63
2021/06/13 12:50:05;;;;;;;3.92;3.17;;;24.80;51.10;;;;;;5115233;28;20530;-63
2021/06/13 12:52:31;;;;;;;5.28;3.47;;;24.80;51.00;;;;;;5114397;28;20259;-63
2021/06/13 12:55:05;;;;;;;2.97;2.70;;;24.80;50.90;;;;;;5115242;28;20286;-63
2021/06/13 12:57:31;;;;;;;4.25;2.80;;;24.80;50.90;;;;;;5115093;28;20544;-64
2021/06/13 12:59:57;;;;;;;3.55;3.22;;;24.90;50.90;;;;;;5113188;28;20691;-63
2021/06/13 13:02:22;;;;;;;3.53;2.85;;;24.90;50.80;;;;;;5096865;28;20219;-64
2021/06/13 13:04:51;;;;;;;4.93;3.30;;;24.90;50.80;;;;;;5114661;28;20185;-63